Time;durP1;ratioP1;P1;durP2;ratioP2;P2;SDS_P1;SDS_P2;PMS_P1;PMS_P2;Temp;Humidity;BMP_temperature;BMP_pressure;BME280_temperature;BME280_humidity;BME280_pressure;Samples;Min_cycle;Max_cycle;Signal;HPM_P1;HPM_P2
2023/10/08 00:02:26;;;;;;;3.45;1.50;;;;;;;;;;4887742;29;20452;-79
2023/10/08 00:04:54;;;;;;;4.93;1.60;;;14.20;99.90;;;;;;4868314;29;20429;-79
2023/10/08 00:07:27;;;;;;;2.55;1.45;;;14.00;99.90;;;;;;4880090;29;20503;-80
2023/10/08 00:09:53;;;;;;;4.70;1.83;;;14.20;99.90;;;;;;4888126;29;20973;-80
2023/10/08 00:12:20;;;;;;;3.35;1.60;;;14.00;99.90;;;;;;4889029;29;20438;-80
2023/10/08 00:14:49;;;;;;;3.03;1.70;;;14.10;99.90;;;;;;4894909;29;20421;-80
2023/10/08 00:17:19;;;;;;;2.80;1.50;;;13.90;99.90;;;;;;4879869;29;20420;-80
2023/10/08 00:19:46;;;;;;;2.90;1.70;;;14.00;99.90;;;;;;4891331;29;20477;-80
2023/10/08 00:22:13;;;;;;;4.10;1.50;;;13.70;99.90;;;;;;4898045;29;20419;-80
2023/10/08 00:24:41;;;;;;;3.22;1.70;;;14.00;99.90;;;;;;4860936;29;20424;-80
2023/10/08 00:27:08;;;;;;;3.33;1.90;;;13.80;99.90;;;;;;4869904;29;20453;-82
2023/10/08 00:29:34;;;;;;;3.88;1.60;;;13.90;99.90;;;;;;4898614;29;20423;-82
2023/10/08 00:32:11;;;;;;;2.42;1.50;;;13.60;99.90;;;;;;4899497;29;20451;-81
2023/10/08 00:34:41;;;;;;;2.83;1.58;;;13.60;99.90;;;;;;4889473;29;20463;-81
2023/10/08 00:37:09;;;;;;;3.22;1.50;;;13.70;99.90;;;;;;4902767;29;20461;-81
2023/10/08 00:39:37;;;;;;;3.00;1.48;;;13.80;99.90;;;;;;4890574;29;20857;-81
2023/10/08 00:42:07;;;;;;;2.70;1.60;;;13.80;99.90;;;;;;4864993;29;20476;-80
2023/10/08 00:44:55;;;;;;;2.92;1.40;;;13.70;99.90;;;;;;4883457;29;20418;-78
2023/10/08 00:47:26;;;;;;;2.47;1.00;;;13.60;99.90;;;;;;4913767;29;20422;-80
2023/10/08 00:50:03;;;;;;;1.92;1.00;;;13.70;99.90;;;;;;4875973;29;20438;-80
2023/10/08 00:52:30;;;;;;;2.08;1.00;;;13.70;99.90;;;;;;4893409;29;20432;-80
2023/10/08 00:57:36;;;;;;;3.03;1.07;;;13.50;99.90;;;;;;4880992;29;20417;-80
2023/10/08 01:00:06;;;;;;;3.03;1.40;;;;;;;;;;4879559;29;20449;-75
2023/10/08 01:02:46;;;;;;;6.38;1.40;;;13.60;99.90;;;;;;4894423;29;20426;-75
2023/10/08 01:05:14;;;;;;;3.17;1.42;;;13.50;99.90;;;;;;4882536;29;20426;-76
2023/10/08 01:07:44;;;;;;;3.30;1.67;;;13.60;99.90;;;;;;4896784;29;20485;-75
2023/10/08 01:10:13;;;;;;;3.33;1.30;;;;;;;;;;4886312;29;20464;-75
2023/10/08 01:12:55;;;;;;;2.55;1.10;;;13.70;99.90;;;;;;4879419;29;20521;-75
2023/10/08 01:15:31;;;;;;;3.38;1.30;;;13.70;99.90;;;;;;4903609;29;20423;-75
2023/10/08 01:18:00;;;;;;;3.78;1.50;;;13.60;99.90;;;;;;4892642;29;20435;-75
2023/10/08 01:20:49;;;;;;;1.65;0.85;;;;;;;;;;4874739;29;20440;-75
2023/10/08 01:23:16;;;;;;;3.42;0.88;;;13.50;99.90;;;;;;4883185;29;20503;-75
2023/10/08 01:25:48;;;;;;;2.72;0.80;;;13.60;99.90;;;;;;4883389;29;20524;-75
2023/10/08 01:28:25;;;;;;;2.50;0.90;;;;;;;;;;4880788;29;20429;-75
2023/10/08 01:30:54;;;;;;;3.72;0.95;;;;;;;;;;4896499;29;20454;-75
2023/10/08 01:33:27;;;;;;;2.88;0.90;;;13.70;99.90;;;;;;4895775;29;20516;-76
2023/10/08 01:35:54;;;;;;;2.63;1.30;;;13.60;99.90;;;;;;4895562;29;20494;-75
2023/10/08 01:38:26;;;;;;;4.63;0.95;;;;;;;;;;4895417;29;20418;-75
2023/10/08 01:40:52;;;;;;;3.38;1.23;;;;;;;;;;4880612;29;20428;-75
2023/10/08 01:43:19;;;;;;;2.53;0.80;;;13.60;99.90;;;;;;4880327;29;20427;-76
2023/10/08 01:45:48;;;;;;;4.82;1.00;;;13.60;99.90;;;;;;4895994;29;20451;-76
2023/10/08 01:48:20;;;;;;;3.50;0.90;;;;;;;;;;4886147;29;20416;-75
2023/10/08 01:50:49;;;;;;;3.33;0.90;;;13.90;99.90;;;;;;4887654;29;20459;-75
2023/10/08 01:53:16;;;;;;;3.42;0.90;;;;;;;;;;4895720;29;20423;-76
2023/10/08 01:55:52;;;;;;;2.25;0.93;;;13.80;99.90;;;;;;4875024;29;20498;-75
2023/10/08 01:58:19;;;;;;;3.40;1.10;;;;;;;;;;4891000;29;20442;-76
2023/10/08 02:00:46;;;;;;;4.25;1.17;;;13.90;99.90;;;;;;4896147;29;20824;-76
2023/10/08 02:03:16;;;;;;;2.75;1.00;;;;;;;;;;4897277;29;20473;-76
2023/10/08 02:05:44;;;;;;;3.75;1.13;;;;;;;;;;4893183;29;20422;-76
2023/10/08 02:08:12;;;;;;;5.97;1.08;;;;;;;;;;4896498;29;20425;-75
2023/10/08 02:10:40;;;;;;;3.55;1.10;;;14.00;99.90;;;;;;4892816;29;20429;-75
2023/10/08 02:13:08;;;;;;;4.03;0.93;;;13.90;99.90;;;;;;4882498;29;20450;-75
2023/10/08 02:15:34;;;;;;;2.93;0.97;;;;;;;;;;4881653;29;20417;-75
2023/10/08 02:18:00;;;;;;;2.78;0.80;;;;;;;;;;4894237;29;20975;-75
2023/10/08 02:20:27;;;;;;;2.30;0.93;;;;;;;;;;4877480;29;20428;-75
2023/10/08 02:22:53;;;;;;;3.65;1.00;;;13.80;99.90;;;;;;4895776;29;20454;-76
2023/10/08 02:25:20;;;;;;;3.38;1.05;;;;;;;;;;4862829;29;20795;-75
2023/10/08 02:27:45;;;;;;;3.47;1.15;;;14.00;99.90;;;;;;4891054;29;20423;-76
2023/10/08 02:30:12;;;;;;;5.55;1.00;;;;;;;;;;4895277;29;20776;-75
2023/10/08 02:32:42;;;;;;;4.87;1.33;;;14.00;99.90;;;;;;4894001;29;20438;-76
2023/10/08 02:35:11;;;;;;;4.80;1.20;;;13.90;99.90;;;;;;4886172;29;20480;-75
2023/10/08 02:37:40;;;;;;;4.75;1.10;;;;;;;;;;4888776;29;20418;-76
2023/10/08 02:40:26;;;;;;;2.67;1.00;;;14.00;99.90;;;;;;4880186;29;20422;-75
2023/10/08 02:42:57;;;;;;;2.97;1.25;;;;;;;;;;4896016;29;20926;-75
2023/10/08 02:45:26;;;;;;;3.87;1.30;;;14.00;99.90;;;;;;4897003;29;20470;-75
2023/10/08 02:47:52;;;;;;;4.50;1.40;;;14.00;99.90;;;;;;4891714;29;20423;-75
2023/10/08 02:50:19;;;;;;;3.08;1.15;;;;;;;;;;4885840;29;20491;-75
2023/10/08 02:52:45;;;;;;;5.05;1.50;;;;;;;;;;4882856;29;20434;-75
2023/10/08 02:55:24;;;;;;;4.20;1.40;;;13.70;99.90;;;;;;4894891;29;20974;-75
2023/10/08 02:57:50;;;;;;;2.97;1.20;;;;;;;;;;4895831;29;20423;-75
2023/10/08 03:00:19;;;;;;;2.92;1.38;;;13.90;99.90;;;;;;4877942;29;20452;-74
2023/10/08 03:02:46;;;;;;;5.45;1.40;;;13.90;99.90;;;;;;4890163;29;20426;-75
2023/10/08 03:05:16;;;;;;;4.65;1.45;;;13.90;99.90;;;;;;4898858;29;20418;-75
2023/10/08 03:07:42;;;;;;;4.60;1.70;;;14.00;99.90;;;;;;4897336;29;20798;-75
2023/10/08 03:10:17;;;;;;;4.13;1.50;;;13.70;99.90;;;;;;4879761;29;20424;-76
2023/10/08 03:12:46;;;;;;;5.15;1.67;;;13.90;99.90;;;;;;4893682;29;20494;-75
2023/10/08 03:15:14;;;;;;;5.80;1.90;;;13.90;99.90;;;;;;4907449;29;20840;-76
2023/10/08 03:17:49;;;;;;;6.53;1.60;;;13.90;99.90;;;;;;4887342;29;20437;-75
2023/10/08 03:20:29;;;;;;;4.27;1.40;;;13.70;99.90;;;;;;4890074;29;20497;-75
2023/10/08 03:22:57;;;;;;;3.03;1.45;;;;;;;;;;4896089;29;20903;-75
2023/10/08 03:25:24;;;;;;;4.45;1.60;;;;;;;;;;4883971;29;20447;-75
2023/10/08 03:27:50;;;;;;;4.28;1.20;;;13.60;99.90;;;;;;4889738;29;20424;-75
2023/10/08 03:30:16;;;;;;;4.30;1.50;;;13.60;99.90;;;;;;4909437;29;20494;-75
2023/10/08 03:32:50;;;;;;;3.50;1.50;;;;;;;;;;4896448;29;20468;-74
2023/10/08 03:35:17;;;;;;;3.35;1.58;;;13.80;99.90;;;;;;4895521;29;20459;-75
2023/10/08 03:37:49;;;;;;;5.77;1.40;;;;;;;;;;4885007;29;20513;-74
2023/10/08 03:40:42;;;;;;;5.38;1.52;;;13.50;99.90;;;;;;4892762;29;20418;-76
2023/10/08 03:43:20;;;;;;;3.90;1.30;;;13.40;99.90;;;;;;4894238;29;20848;-75
2023/10/08 03:45:59;;;;;;;11.00;1.60;;;;;;;;;;4896033;29;20425;-75
2023/10/08 03:48:26;;;;;;;3.95;1.58;;;;;;;;;;4896748;29;20494;-75
2023/10/08 03:51:06;;;;;;;4.53;1.50;;;;;;;;;;4882923;29;20497;-75
2023/10/08 03:53:37;;;;;;;3.93;1.50;;;13.80;99.90;;;;;;4893643;29;20467;-74
2023/10/08 03:56:06;;;;;;;4.00;1.50;;;13.80;99.90;;;;;;4883910;29;20923;-75
2023/10/08 03:58:40;;;;;;;4.65;1.90;;;13.70;99.90;;;;;;4893417;29;20439;-75
2023/10/08 04:01:10;;;;;;;5.40;1.60;;;13.80;99.90;;;;;;4879103;29;20887;-75
2023/10/08 04:03:57;;;;;;;3.30;1.50;;;13.90;99.90;;;;;;4893125;29;20591;-75
2023/10/08 04:11:43;;;;;;;5.65;2.10;;;;;;;;;;4898161;29;20518;-75
2023/10/08 04:14:09;;;;;;;6.25;2.42;;;;;;;;;;4893546;29;20433;-75
2023/10/08 04:16:37;;;;;;;5.68;2.53;;;13.70;99.90;;;;;;4897798;29;20919;-75
2023/10/08 04:19:03;;;;;;;9.37;3.00;;;13.70;99.90;;;;;;4896107;29;20454;-75
2023/10/08 04:21:31;;;;;;;7.40;3.00;;;13.50;99.90;;;;;;4898023;29;20431;-75
2023/10/08 04:23:57;;;;;;;6.63;2.90;;;;;;;;;;4874508;29;20423;-75
2023/10/08 04:26:24;;;;;;;5.90;2.60;;;;;;;;;;4893422;29;20476;-75
2023/10/08 04:29:06;;;;;;;6.10;2.70;;;13.60;99.90;;;;;;4877633;29;20420;-75
2023/10/08 04:31:43;;;;;;;6.28;2.80;;;13.50;99.90;;;;;;4880253;29;20439;-74
2023/10/08 04:34:15;;;;;;;5.35;2.38;;;;;;;;;;4893560;29;20728;-74
2023/10/08 04:36:45;;;;;;;7.85;2.70;;;;;;;;;;4878519;29;20789;-75
2023/10/08 04:39:21;;;;;;;6.80;2.80;;;13.70;99.90;;;;;;4888947;29;20419;-75
2023/10/08 04:41:52;;;;;;;9.13;3.20;;;13.60;99.90;;;;;;4884377;29;20424;-75
2023/10/08 04:44:18;;;;;;;8.07;3.13;;;;;;;;;;4893523;29;20428;-75
2023/10/08 04:46:49;;;;;;;6.50;2.92;;;;;;;;;;4892959;29;20423;-75
2023/10/08 04:49:27;;;;;;;5.65;2.70;;;13.70;99.90;;;;;;4887530;29;20549;-75
2023/10/08 04:52:14;;;;;;;7.15;3.13;;;13.60;99.90;;;;;;4892419;29;20439;-76
2023/10/08 04:54:41;;;;;;;6.97;3.10;;;;;;;;;;4886742;29;20470;-75
2023/10/08 04:57:15;;;;;;;6.00;2.70;;;13.70;99.90;;;;;;4897935;29;20451;-75
2023/10/08 04:59:46;;;;;;;7.55;2.70;;;;;;;;;;4897243;29;20829;-75
2023/10/08 05:05:21;;;;;;;5.97;2.47;;;13.50;99.90;;;;;;4891677;29;20565;-76
2023/10/08 05:12:45;;;;;;;7.37;2.73;;;;;;;;;;4892989;29;20806;-75
2023/10/08 05:23:20;;;;;;;7.85;2.50;;;13.80;99.90;;;;;;4889719;29;20420;-75
2023/10/08 05:28:46;;;;;;;6.78;2.67;;;13.80;99.90;;;;;;4879832;29;20428;-75
2023/10/08 05:36:50;;;;;;;6.32;2.88;;;13.80;99.90;;;;;;4891348;29;20510;-76
2023/10/08 05:42:16;;;;;;;6.77;3.17;;;;;;;;;;4896104;29;20497;-75
2023/10/08 05:44:46;;;;;;;6.93;2.67;;;;;;;;;;4879770;29;20493;-76
2023/10/08 05:50:28;;;;;;;9.30;3.20;;;;;;;;;;4892407;29;20769;-75
2023/10/08 05:55:25;;;;;;;9.35;2.80;;;13.40;99.90;;;;;;4883078;29;20543;-75
2023/10/08 05:58:03;;;;;;;6.45;2.70;;;13.60;99.90;;;;;;4885290;29;20411;-75
2023/10/08 06:01:05;;;;;;;6.28;2.80;;;13.50;99.90;;;;;;4890375;29;20583;-74
2023/10/08 06:03:59;;;;;;;6.45;2.90;;;;;;;;;;4895195;29;20522;-75
2023/10/08 06:06:22;;;;;;;7.40;2.90;;;13.40;99.90;;;;;;4888898;29;20451;-74
2023/10/08 06:08:51;;;;;;;6.97;3.30;;;13.60;99.90;;;;;;4894965;29;20760;-75
2023/10/08 06:14:16;;;;;;;8.25;3.00;;;;;;;;;;4889005;29;20431;-75
2023/10/08 06:16:46;;;;;;;8.32;3.40;;;;;;;;;;4884653;29;20418;-75
2023/10/08 06:19:14;;;;;;;7.60;3.38;;;13.70;99.90;;;;;;4883011;29;20806;-75
2023/10/08 06:21:41;;;;;;;7.78;3.30;;;13.90;99.90;;;;;;4870641;29;20775;-75
2023/10/08 06:24:09;;;;;;;5.78;3.10;;;13.70;99.90;;;;;;4889492;29;20416;-75
2023/10/08 06:26:42;;;;;;;9.20;3.43;;;13.60;99.90;;;;;;4881541;29;20488;-75
2023/10/08 06:29:26;;;;;;;5.28;3.13;;;;;;;;;;4879899;29;20421;-74
2023/10/08 06:32:05;;;;;;;8.32;3.25;;;13.60;99.90;;;;;;4875145;29;20974;-75
2023/10/08 06:34:31;;;;;;;9.77;3.78;;;;;;;;;;4880599;29;20949;-74
2023/10/08 06:37:01;;;;;;;7.50;3.30;;;13.60;99.90;;;;;;4883455;29;20479;-75
2023/10/08 06:39:33;;;;;;;10.47;3.40;;;13.50;99.90;;;;;;4899812;29;20439;-74
2023/10/08 06:42:00;;;;;;;11.23;3.72;;;13.70;99.90;;;;;;4900206;29;20528;-77
2023/10/08 06:44:27;;;;;;;7.35;3.53;;;13.60;99.90;;;;;;4888264;29;20444;-77
2023/10/08 06:46:54;;;;;;;9.68;3.25;;;13.90;99.90;;;;;;4885673;29;20421;-77
2023/10/08 06:49:23;;;;;;;9.23;3.15;;;13.90;99.90;;;;;;4881940;29;20504;-77
2023/10/08 06:51:50;;;;;;;8.80;3.60;;;13.90;99.90;;;;;;4899308;29;20536;-77
2023/10/08 06:54:17;;;;;;;10.63;3.78;;;13.80;99.90;;;;;;4898825;29;20424;-78
2023/10/08 06:56:46;;;;;;;7.75;3.40;;;13.80;99.90;;;;;;4914320;29;20914;-77
2023/10/08 06:59:17;;;;;;;8.55;3.55;;;13.60;99.90;;;;;;4895584;29;20936;-78
2023/10/08 07:01:45;;;;;;;5.97;3.30;;;13.80;99.90;;;;;;4911303;29;20485;-78
2023/10/08 07:04:12;;;;;;;9.20;4.03;;;13.90;99.90;;;;;;4900888;29;20423;-78
2023/10/08 07:06:39;;;;;;;8.52;3.55;;;13.60;99.90;;;;;;4905874;29;20507;-77
2023/10/08 07:09:06;;;;;;;7.85;3.20;;;13.80;99.90;;;;;;4886260;29;20458;-78
2023/10/08 07:11:35;;;;;;;11.35;3.63;;;13.80;99.90;;;;;;4895873;29;20492;-77
2023/10/08 07:14:01;;;;;;;9.68;3.50;;;14.00;99.90;;;;;;4909867;29;20785;-77
2023/10/08 07:16:30;;;;;;;6.13;3.30;;;13.90;99.90;;;;;;4879472;29;20436;-77
2023/10/08 07:19:05;;;;;;;8.97;3.50;;;13.90;99.90;;;;;;4886314;29;20482;-77
2023/10/08 07:21:44;;;;;;;8.57;3.35;;;13.90;99.90;;;;;;4895400;29;20519;-77
2023/10/08 07:24:17;;;;;;;10.05;3.75;;;13.80;99.90;;;;;;4884456;29;20432;-77
2023/10/08 07:26:46;;;;;;;9.45;3.20;;;14.10;99.90;;;;;;4894538;29;20424;-76
2023/10/08 07:29:16;;;;;;;9.35;3.17;;;14.10;99.90;;;;;;4902829;29;20446;-76
2023/10/08 07:31:48;;;;;;;8.20;3.03;;;14.00;99.90;;;;;;4867385;29;20440;-77
2023/10/08 07:34:26;;;;;;;6.80;3.30;;;14.20;99.90;;;;;;4896138;29;20772;-78
2023/10/08 07:36:54;;;;;;;8.88;3.30;;;14.00;99.90;;;;;;4890376;29;20432;-79
2023/10/08 07:41:50;;;;;;;8.82;3.00;;;13.90;99.90;;;;;;4899911;29;20517;-79
2023/10/08 07:44:21;;;;;;;6.73;2.70;;;14.20;99.90;;;;;;4898111;29;20480;-80
2023/10/08 07:46:50;;;;;;;6.43;2.83;;;14.40;99.90;;;;;;4896908;29;20444;-79
2023/10/08 07:49:17;;;;;;;11.50;3.65;;;14.20;99.90;;;;;;4884560;29;20432;-79
2023/10/08 07:51:50;;;;;;;8.98;3.28;;;13.90;99.90;;;;;;4891353;29;20486;-80
2023/10/08 07:54:24;;;;;;;8.93;2.38;;;13.80;99.90;;;;;;4896664;29;20446;-80
2023/10/08 07:56:59;;;;;;;9.02;2.42;;;13.80;99.90;;;;;;4896067;29;20509;-80
2023/10/08 07:59:25;;;;;;;8.15;2.70;;;14.00;99.90;;;;;;4890085;29;20566;-80
2023/10/08 08:01:53;;;;;;;9.00;3.33;;;13.70;99.90;;;;;;4889262;29;20487;-79
2023/10/08 08:04:22;;;;;;;13.07;4.50;;;13.60;99.90;;;;;;4888296;29;20435;-79
2023/10/08 08:06:52;;;;;;;12.10;4.47;;;13.60;99.90;;;;;;4894084;29;20430;-78
2023/10/08 08:09:19;;;;;;;10.43;3.63;;;13.80;99.90;;;;;;4896866;29;20427;-79
2023/10/08 08:11:47;;;;;;;9.20;3.30;;;;;;;;;;4901589;29;20629;-78
2023/10/08 08:14:16;;;;;;;8.17;3.40;;;13.90;99.90;;;;;;4901633;29;20525;-78
2023/10/08 08:16:47;;;;;;;10.32;3.10;;;13.80;99.90;;;;;;4889216;29;20888;-79
2023/10/08 08:19:17;;;;;;;12.35;2.80;;;14.10;99.90;;;;;;4890979;29;20437;-78
2023/10/08 08:21:46;;;;;;;12.02;2.95;;;14.10;99.90;;;;;;4891380;29;21068;-75
2023/10/08 08:24:13;;;;;;;10.00;2.85;;;13.80;99.90;;;;;;4889146;29;20965;-75
2023/10/08 08:26:40;;;;;;;7.88;2.88;;;14.10;99.90;;;;;;4891155;29;20769;-75
2023/10/08 08:29:15;;;;;;;12.88;3.28;;;14.20;99.90;;;;;;4884816;29;20507;-75
2023/10/08 08:31:46;;;;;;;8.00;2.60;;;14.30;99.90;;;;;;4898785;29;20465;-74
2023/10/08 08:34:19;;;;;;;12.65;3.03;;;14.40;99.90;;;;;;4877468;29;20435;-76
2023/10/08 08:36:48;;;;;;;10.50;3.17;;;14.50;99.90;;;;;;4881273;29;20454;-76
2023/10/08 08:39:32;;;;;;;10.70;2.60;;;14.40;99.90;;;;;;4890820;29;20518;-76
2023/10/08 08:42:04;;;;;;;7.93;2.15;;;14.40;99.90;;;;;;4869177;29;20919;-77
2023/10/08 08:44:32;;;;;;;9.82;2.22;;;14.70;99.90;;;;;;4897243;29;20462;-76
2023/10/08 08:47:04;;;;;;;9.93;2.23;;;14.70;99.90;;;;;;4876783;29;20562;-77
2023/10/08 08:49:34;;;;;;;8.63;2.78;;;14.80;99.90;;;;;;4888608;29;20424;-76
2023/10/08 08:52:00;;;;;;;10.00;2.43;;;14.70;99.90;;;;;;4895106;29;20521;-76
2023/10/08 08:54:32;;;;;;;10.60;2.35;;;14.90;99.90;;;;;;4862174;29;20523;-76
2023/10/08 08:57:04;;;;;;;7.28;2.05;;;15.00;99.90;;;;;;4862748;29;20513;-77
2023/10/08 08:59:30;;;;;;;8.20;2.03;;;15.00;99.90;;;;;;4876598;29;20456;-76
2023/10/08 09:01:59;;;;;;;13.00;2.17;;;15.40;99.90;;;;;;4891158;29;20419;-76
2023/10/08 09:04:32;;;;;;;7.20;2.20;;;15.50;99.90;;;;;;4895198;29;20502;-76
2023/10/08 09:07:04;;;;;;;7.68;1.90;;;15.10;99.90;;;;;;4885278;29;20431;-76
2023/10/08 09:09:41;;;;;;;7.65;2.30;;;15.20;99.90;;;;;;4886892;29;20432;-76
2023/10/08 09:12:10;;;;;;;8.85;2.67;;;15.20;99.90;;;;;;4889829;29;20449;-75
2023/10/08 09:14:37;;;;;;;7.80;2.00;;;15.10;99.90;;;;;;4895807;29;20464;-76
2023/10/08 09:17:05;;;;;;;8.18;2.30;;;15.40;99.90;;;;;;4876233;29;20417;-75
2023/10/08 09:19:36;;;;;;;9.98;2.53;;;15.60;99.90;;;;;;4887668;29;20439;-75
2023/10/08 09:22:07;;;;;;;7.40;2.03;;;13.50;99.90;;;;;;4902399;29;20505;-74
2023/10/08 09:24:40;;;;;;;6.45;1.77;;;15.60;99.90;;;;;;4883590;29;20489;-75
2023/10/08 09:27:08;;;;;;;7.85;2.10;;;15.70;99.90;;;;;;4886688;29;20417;-76
2023/10/08 09:29:39;;;;;;;9.15;1.80;;;15.70;99.90;;;;;;4879166;29;20781;-76
2023/10/08 09:32:07;;;;;;;8.52;1.90;;;14.30;99.90;;;;;;4887630;29;20940;-76
2023/10/08 09:34:33;;;;;;;8.70;1.70;;;16.40;99.90;;;;;;4893286;29;20423;-77
2023/10/08 09:37:00;;;;;;;8.55;2.05;;;17.00;99.90;;;;;;4893483;29;20464;-77
2023/10/08 09:39:29;;;;;;;9.73;2.13;;;16.10;99.90;;;;;;4873727;29;20431;-76
2023/10/08 09:41:58;;;;;;;6.75;1.73;;;16.40;99.90;;;;;;4896970;29;20419;-76
2023/10/08 09:44:25;;;;;;;7.63;1.98;;;16.30;99.90;;;;;;4887547;29;21032;-76
2023/10/08 09:47:04;;;;;;;8.60;1.95;;;16.30;99.90;;;;;;4892431;29;20496;-76
2023/10/08 09:49:47;;;;;;;11.07;2.80;;;16.40;99.90;;;;;;4878765;29;20443;-76
2023/10/08 09:52:16;;;;;;;8.40;2.15;;;16.00;99.90;;;;;;4881399;29;20475;-75
2023/10/08 09:55:04;;;;;;;9.90;2.10;;;16.90;99.90;;;;;;4890129;29;20917;-74
2023/10/08 09:57:30;;;;;;;9.65;2.33;;;16.70;99.90;;;;;;4888671;29;20943;-75
2023/10/08 09:59:59;;;;;;;10.90;2.22;;;16.70;99.90;;;;;;4875272;29;20423;-74
2023/10/08 10:02:27;;;;;;;8.27;1.80;;;16.40;99.90;;;;;;4893347;29;20480;-75
2023/10/08 10:04:55;;;;;;;8.07;2.10;;;16.80;99.90;;;;;;4894351;29;20565;-75
2023/10/08 10:07:21;;;;;;;8.68;1.92;;;16.70;99.90;;;;;;4877350;29;20489;-76
2023/10/08 10:09:53;;;;;;;12.65;2.83;;;16.70;99.90;;;;;;4891863;29;20423;-75
2023/10/08 10:12:30;;;;;;;7.97;2.00;;;16.50;99.90;;;;;;4901018;29;20543;-75
2023/10/08 10:14:57;;;;;;;13.80;2.20;;;16.60;99.90;;;;;;4884843;29;20427;-75
2023/10/08 10:17:26;;;;;;;8.07;1.85;;;15.50;99.90;;;;;;4890037;29;20519;-74
2023/10/08 10:20:01;;;;;;;7.78;2.00;;;16.60;99.90;;;;;;4895705;29;20423;-74
2023/10/08 10:22:34;;;;;;;10.03;1.83;;;16.40;99.90;;;;;;4884662;29;20432;-75
2023/10/08 10:25:11;;;;;;;9.15;1.83;;;16.80;99.90;;;;;;4875438;29;20480;-75
2023/10/08 10:28:04;;;;;;;13.38;2.00;;;16.60;99.90;;;;;;4879457;29;20743;-75
2023/10/08 10:30:30;;;;;;;9.00;2.03;;;16.80;99.90;;;;;;4891156;29;20793;-75
2023/10/08 10:33:01;;;;;;;7.40;1.80;;;16.70;99.90;;;;;;4889492;29;20435;-75
2023/10/08 10:35:27;;;;;;;10.15;2.00;;;16.60;99.90;;;;;;4866868;29;20447;-75
2023/10/08 10:37:55;;;;;;;8.48;1.77;;;16.60;99.90;;;;;;4886328;29;20430;-75
2023/10/08 10:40:40;;;;;;;9.10;1.80;;;17.10;99.90;;;;;;4890131;29;20431;-75
2023/10/08 10:43:06;;;;;;;7.72;2.20;;;17.40;99.90;;;;;;4887449;29;20470;-76
2023/10/08 10:45:36;;;;;;;13.55;2.25;;;16.90;99.90;;;;;;4886853;29;20743;-75
2023/10/08 10:51:08;;;;;;;9.20;1.90;;;16.90;99.90;;;;;;4885133;29;20427;-75
2023/10/08 10:53:56;;;;;;;7.47;1.80;;;17.20;99.90;;;;;;4888639;29;20931;-75
2023/10/08 10:56:29;;;;;;;9.10;2.38;;;17.20;99.90;;;;;;4882258;29;20436;-75
2023/10/08 10:59:15;;;;;;;10.10;2.00;;;16.60;99.90;;;;;;4875538;29;21181;-75
2023/10/08 11:01:46;;;;;;;11.52;2.28;;;17.20;99.90;;;;;;4886241;29;20460;-76
2023/10/08 11:04:15;;;;;;;8.43;2.30;;;17.20;99.90;;;;;;4879480;29;20429;-76
2023/10/08 11:06:45;;;;;;;9.73;2.28;;;17.60;99.90;;;;;;4861828;29;20485;-75
2023/10/08 11:09:17;;;;;;;10.48;2.33;;;17.20;99.90;;;;;;4886394;29;20518;-75
2023/10/08 11:11:54;;;;;;;9.83;2.00;;;16.80;99.90;;;;;;4869149;29;20947;-75
2023/10/08 11:14:21;;;;;;;8.05;1.85;;;16.80;99.90;;;;;;4888064;29;20434;-76
2023/10/08 11:16:51;;;;;;;10.00;1.90;;;17.10;99.90;;;;;;4881433;29;20428;-75
2023/10/08 11:19:19;;;;;;;8.23;1.75;;;16.30;99.90;;;;;;4889542;29;20836;-76
2023/10/08 11:21:55;;;;;;;8.57;2.13;;;16.80;99.90;;;;;;4854680;29;20512;-75
2023/10/08 11:24:33;;;;;;;9.85;2.30;;;16.70;99.90;;;;;;4863187;29;20935;-75
2023/10/08 11:27:17;;;;;;;5.88;1.75;;;17.30;99.90;;;;;;4890369;29;20859;-75
2023/10/08 11:29:57;;;;;;;7.63;2.08;;;17.20;99.90;;;;;;4882590;29;20505;-76
2023/10/08 11:32:27;;;;;;;11.60;1.93;;;16.90;99.90;;;;;;4891730;29;20450;-76
2023/10/08 11:34:58;;;;;;;6.63;2.03;;;17.30;99.90;;;;;;4894562;29;20420;-77
2023/10/08 11:37:28;;;;;;;9.65;2.00;;;17.70;99.90;;;;;;4901398;29;20494;-75
2023/10/08 11:39:57;;;;;;;7.57;1.77;;;17.50;99.90;;;;;;4893721;29;20523;-76
2023/10/08 11:47:45;;;;;;;9.10;1.80;;;17.70;99.90;;;;;;4883985;29;20436;-76
2023/10/08 11:50:16;;;;;;;8.65;1.77;;;17.90;99.90;;;;;;4881589;29;20439;-75
2023/10/08 11:52:42;;;;;;;6.05;1.70;;;17.70;99.90;;;;;;4889816;29;20448;-75
2023/10/08 11:55:18;;;;;;;6.27;1.93;;;17.70;99.90;;;;;;4881578;29;20426;-75
2023/10/08 11:57:45;;;;;;;8.77;1.77;;;17.70;99.90;;;;;;4885460;29;21000;-75
2023/10/08 12:00:18;;;;;;;8.15;1.70;;;18.10;99.90;;;;;;4901747;29;20431;-75
2023/10/08 12:02:48;;;;;;;9.82;1.65;;;18.00;99.90;;;;;;4897501;29;20430;-77
2023/10/08 12:05:20;;;;;;;8.70;1.97;;;17.90;99.90;;;;;;4898464;29;20812;-75
2023/10/08 12:07:52;;;;;;;7.32;1.70;;;17.80;99.90;;;;;;4884550;29;20561;-75
2023/10/08 12:10:22;;;;;;;6.10;1.42;;;17.60;99.90;;;;;;4882504;29;20423;-77
2023/10/08 12:12:59;;;;;;;11.33;2.60;;;17.40;99.90;;;;;;4898928;29;20459;-75
2023/10/08 12:15:38;;;;;;;9.70;1.80;;;17.60;99.90;;;;;;4882399;29;20415;-76
2023/10/08 12:20:49;;;;;;;9.25;1.85;;;17.70;99.90;;;;;;4905571;29;20499;-76
2023/10/08 12:23:24;;;;;;;5.73;1.53;;;17.60;99.90;;;;;;4893072;29;20425;-76
2023/10/08 12:25:55;;;;;;;6.05;1.90;;;17.70;99.90;;;;;;4885526;29;20946;-75
2023/10/08 12:28:25;;;;;;;8.70;1.88;;;17.70;99.90;;;;;;4884173;29;20429;-76
2023/10/08 12:30:55;;;;;;;4.90;1.42;;;18.10;99.90;;;;;;4911860;29;20428;-75
2023/10/08 12:33:25;;;;;;;7.33;1.70;;;18.00;99.90;;;;;;4907913;29;20459;-75
2023/10/08 12:35:55;;;;;;;6.60;1.60;;;18.40;99.90;;;;;;4863501;29;20436;-76
2023/10/08 12:38:27;;;;;;;5.68;1.67;;;18.80;99.90;;;;;;4890115;29;20436;-75
2023/10/08 12:40:54;;;;;;;8.93;1.80;;;18.50;99.90;;;;;;4894105;29;20925;-75
2023/10/08 12:43:27;;;;;;;7.20;1.75;;;18.80;99.90;;;;;;4894144;29;20461;-75
2023/10/08 12:45:54;;;;;;;8.20;2.10;;;18.30;99.90;;;;;;4894238;29;20516;-75
2023/10/08 12:48:21;;;;;;;8.43;2.30;;;18.40;99.90;;;;;;4879706;29;20429;-75
2023/10/08 12:50:56;;;;;;;5.30;1.65;;;17.80;99.90;;;;;;4882166;29;20448;-73
2023/10/08 12:53:26;;;;;;;10.88;2.10;;;18.30;99.90;;;;;;4912383;29;20591;-75
2023/10/08 12:55:53;;;;;;;8.88;2.05;;;18.60;99.90;;;;;;4898519;29;20414;-75
2023/10/08 12:58:29;;;;;;;8.32;1.73;;;16.70;99.90;;;;;;4913230;29;20461;-76
2023/10/08 13:01:03;;;;;;;9.07;1.80;;;18.80;99.90;;;;;;4898211;29;20457;-75
2023/10/08 13:03:32;;;;;;;7.05;1.67;;;18.80;99.90;;;;;;4896453;29;20423;-74
2023/10/08 13:06:11;;;;;;;6.85;1.83;;;18.90;99.90;;;;;;4892700;29;20909;-76
2023/10/08 13:08:37;;;;;;;7.97;2.00;;;19.20;99.90;;;;;;4907703;29;20428;-76
2023/10/08 13:11:03;;;;;;;6.07;1.60;;;19.30;99.90;;;;;;4897180;29;20449;-75
2023/10/08 13:13:31;;;;;;;6.93;1.67;;;19.50;99.90;;;;;;4895374;29;20461;-75
2023/10/08 13:16:00;;;;;;;4.45;1.40;;;18.40;99.90;;;;;;4895554;29;20757;-75
2023/10/08 13:18:26;;;;;;;7.97;1.55;;;18.50;99.90;;;;;;4876754;29;20529;-75
2023/10/08 13:20:52;;;;;;;7.28;1.63;;;18.60;99.90;;;;;;4893201;29;20522;-75
2023/10/08 13:23:20;;;;;;;7.10;1.80;;;19.10;99.90;;;;;;4883048;29;20523;-76
2023/10/08 13:25:53;;;;;;;6.65;1.60;;;18.90;99.90;;;;;;4906351;29;20762;-76
2023/10/08 13:28:21;;;;;;;12.90;2.30;;;18.70;99.90;;;;;;4883751;29;20528;-75
2023/10/08 13:30:47;;;;;;;8.40;1.90;;;18.10;99.90;;;;;;4908546;29;20849;-76
2023/10/08 13:33:12;;;;;;;9.02;2.10;;;18.40;99.90;;;;;;4888812;29;20575;-75
2023/10/08 13:35:38;;;;;;;6.93;1.60;;;18.50;99.90;;;;;;4873543;29;20519;-75
2023/10/08 13:38:09;;;;;;;7.90;1.90;;;18.10;99.90;;;;;;4895198;29;20425;-75
2023/10/08 13:40:39;;;;;;;6.63;1.65;;;17.80;99.90;;;;;;4895094;29;20435;-76
2023/10/08 13:43:06;;;;;;;8.85;1.98;;;18.00;99.90;;;;;;4862875;29;20452;-77
2023/10/08 13:45:37;;;;;;;5.10;1.40;;;18.00;99.90;;;;;;4883809;29;20447;-76
2023/10/08 13:48:05;;;;;;;4.75;1.60;;;17.90;99.90;;;;;;4877247;29;20427;-75
2023/10/08 13:50:31;;;;;;;8.30;1.65;;;18.10;99.90;;;;;;4884217;29;20428;-75
2023/10/08 13:52:58;;;;;;;6.57;1.50;;;18.30;99.90;;;;;;4857157;29;20446;-76
2023/10/08 13:55:25;;;;;;;8.02;1.60;;;18.40;99.90;;;;;;4876939;29;20446;-76
2023/10/08 13:57:54;;;;;;;10.32;1.83;;;18.60;99.90;;;;;;4892225;29;20475;-76
2023/10/08 14:00:25;;;;;;;5.47;1.50;;;18.50;99.90;;;;;;4887015;29;20458;-76
2023/10/08 14:02:52;;;;;;;7.00;1.60;;;17.80;99.90;;;;;;4887615;29;20429;-76
2023/10/08 14:05:23;;;;;;;6.28;1.50;;;18.00;99.90;;;;;;4890244;29;20430;-76
2023/10/08 14:07:52;;;;;;;7.28;1.50;;;18.00;99.90;;;;;;4899858;29;20502;-76
2023/10/08 14:10:18;;;;;;;7.30;1.48;;;18.10;99.90;;;;;;4887420;29;20762;-76
2023/10/08 14:12:50;;;;;;;8.15;1.58;;;17.90;99.90;;;;;;4864342;29;20451;-74
2023/10/08 14:15:17;;;;;;;8.38;1.73;;;17.80;99.90;;;;;;4877397;29;20456;-75
2023/10/08 14:17:53;;;;;;;7.60;1.93;;;17.60;99.90;;;;;;4880745;29;20440;-76
2023/10/08 14:20:21;;;;;;;6.15;1.55;;;17.40;99.90;;;;;;4883452;29;20439;-76